Time;durP1;ratioP1;P1;durP2;ratioP2;P2;SDS_P1;SDS_P2;PMS_P1;PMS_P2;Temp;Humidity;BMP_temperature;BMP_pressure;BME280_temperature;BME280_humidity;BME280_pressure;Samples;Min_cycle;Max_cycle;Signal;HPM_P1;HPM_P2
2022/08/06 00:02:25;;;;;;;8.90;7.22;;;21.90;72.40;;;18.39;96.18;95939.75;4933677;29;20077;-44
2022/08/06 00:05:02;;;;;;;13.38;7.57;;;21.80;72.30;;;18.33;96.48;95940.97;4932181;29;20038;-45
2022/08/06 00:07:28;;;;;;;10.23;7.60;;;21.80;72.30;;;18.32;96.67;95946.66;4932537;29;20050;-43
2022/08/06 00:09:57;;;;;;;10.63;7.72;;;21.80;72.10;;;18.25;97.40;95950.59;4932043;29;20034;-43
2022/08/06 00:12:38;;;;;;;18.52;7.78;;;21.80;72.30;;;18.23;97.57;95954.69;4933415;29;20019;-44
2022/08/06 00:15:10;;;;;;;12.23;7.95;;;21.80;72.60;;;18.21;97.42;95952.31;4933491;29;20118;-44
2022/08/06 00:17:38;;;;;;;16.02;8.63;;;21.70;72.50;;;18.18;97.53;95944.03;4932226;29;20581;-49
2022/08/06 00:20:09;;;;;;;12.75;8.70;;;21.70;72.20;;;18.15;97.27;95950.03;4933080;29;20442;-44
2022/08/06 00:22:34;;;;;;;16.13;9.25;;;21.70;72.40;;;18.14;97.29;95956.50;4932329;29;20589;-44
2022/08/06 00:25:00;;;;;;;13.38;8.63;;;21.60;72.30;;;18.10;97.55;95950.13;4931797;29;20050;-43
2022/08/06 00:27:32;;;;;;;15.82;9.25;;;21.60;72.40;;;18.08;97.79;95953.13;4933345;29;20031;-44
2022/08/06 00:30:05;;;;;;;14.55;9.43;;;21.60;72.60;;;18.07;97.91;95956.13;4931756;29;20066;-44
2022/08/06 00:32:37;;;;;;;12.23;9.10;;;21.60;72.60;;;18.06;98.39;95952.63;4921060;29;20425;-44
2022/08/06 00:35:06;;;;;;;18.83;10.63;;;21.60;72.80;;;18.07;98.58;95951.53;4932966;29;20026;-44
2022/08/06 00:37:32;;;;;;;16.98;11.10;;;21.60;72.80;;;18.08;98.58;95957.72;4933434;29;20034;-44
2022/08/06 00:39:59;;;;;;;17.02;11.55;;;21.60;72.70;;;18.07;98.76;95945.34;4931603;29;20027;-43
2022/08/06 00:42:30;;;;;;;17.52;10.95;;;21.50;72.80;;;18.06;99.04;95943.75;4931890;29;20034;-44
2022/08/06 00:45:03;;;;;;;17.08;11.40;;;21.60;73.00;;;18.04;99.30;95944.84;4931625;29;20051;-44
2022/08/06 00:47:28;;;;;;;15.95;10.60;;;21.60;72.90;;;18.06;99.34;95949.16;4931783;29;20079;-43
2022/08/06 00:50:04;;;;;;;16.92;11.35;;;21.60;72.90;;;18.05;98.99;95951.06;4932468;29;20074;-45
2022/08/06 00:52:32;;;;;;;13.02;10.40;;;21.60;73.00;;;18.05;99.38;95951.06;4932007;29;20386;-47
2022/08/06 00:54:58;;;;;;;20.35;11.60;;;21.60;73.00;;;18.05;99.55;95951.06;4932523;29;20035;-44
2022/08/06 00:57:33;;;;;;;15.80;11.20;;;21.60;73.10;;;18.03;99.74;95945.16;4933131;29;20026;-46
2022/08/06 00:59:59;;;;;;;19.48;11.75;;;21.60;73.40;;;18.04;99.89;95936.75;4915354;29;20023;-43
2022/08/06 01:02:28;;;;;;;20.50;11.85;;;21.50;73.20;;;18.06;99.47;95933.78;4935041;29;20023;-46
2022/08/06 01:05:01;;;;;;;19.98;11.20;;;21.60;73.40;;;18.04;99.49;95941.34;4936651;29;20031;-43
2022/08/06 01:07:44;;;;;;;;;;;21.60;73.50;;;18.04;99.39;95944.03;4937276;29;20034;-46
2022/08/06 01:10:13;;;;;;;14.90;10.45;;;21.60;72.60;;;18.03;99.60;95953.25;4936607;29;19965;-43
2022/08/06 01:12:54;;;;;;;17.35;10.93;;;21.60;72.70;;;18.03;99.54;95948.66;4919409;29;20031;-45
2022/08/06 01:15:20;;;;;;;15.15;10.75;;;21.60;73.00;;;18.02;100.00;95963.22;4919633;29;20027;-45
2022/08/06 01:18:09;;;;;;;18.83;11.20;;;21.60;73.00;;;18.02;99.72;95962.44;4919400;29;20045;-43
2022/08/06 01:22:00;;;;;;;17.52;10.23;;;21.50;73.30;;;18.01;99.72;95958.13;4935271;29;20046;-44
2022/08/06 01:25:02;;;;;;;17.17;11.00;;;21.60;73.30;;;18.01;99.72;95952.75;4877596;29;20516;-46
2022/08/06 01:28:09;;;;;;;21.37;11.73;;;21.60;73.20;;;18.00;100.00;95943.06;4877740;29;20032;-43
2022/08/06 01:31:11;;;;;;;21.60;12.35;;;21.50;73.10;;;17.99;100.00;95944.97;4919870;29;20292;-47
2022/08/06 01:33:52;;;;;;;20.92;12.65;;;21.50;73.20;;;18.00;99.92;95943.06;4904411;29;20027;-46
2022/08/06 01:37:36;;;;;;;20.05;12.57;;;21.50;74.10;;;17.99;100.00;95942.28;4935142;29;20023;-45
2022/08/06 01:40:23;;;;;;;20.98;13.05;;;21.50;73.40;;;17.98;100.00;95956.81;4858567;29;20036;-44
2022/08/06 01:42:54;;;;;;;20.65;11.57;;;21.50;73.30;;;17.99;100.00;95963.03;4854823;29;20032;-45
2022/08/06 01:45:30;;;;;;;21.55;12.90;;;21.50;73.30;;;17.97;100.00;95962.53;4892641;29;20125;-46
2022/08/06 01:48:08;;;;;;;19.60;12.32;;;21.50;73.50;;;17.95;100.00;95949.34;4919073;29;20117;-45
2022/08/06 01:50:41;;;;;;;21.80;12.35;;;21.60;73.70;;;17.96;100.00;95953.66;4918886;29;20074;-45
2022/08/06 01:53:15;;;;;;;22.10;13.02;;;21.60;73.60;;;17.99;100.00;95954.97;4934619;29;20031;-43
2022/08/06 01:55:47;;;;;;;18.52;12.65;;;21.60;73.70;;;18.00;100.00;95961.94;4934625;29;20030;-44
2022/08/06 01:58:22;;;;;;;21.13;12.18;;;21.60;73.70;;;17.99;100.00;95957.66;4934474;29;20050;-47
2022/08/06 02:00:52;;;;;;;16.83;11.48;;;21.60;73.60;;;17.98;100.00;95956.81;4918686;29;20406;-44
2022/08/06 02:03:37;;;;;;;20.23;11.73;;;21.60;73.60;;;17.99;100.00;95954.97;4918581;29;20549;-46
2022/08/06 02:06:09;;;;;;;22.60;13.63;;;21.70;73.80;;;18.00;100.00;95951.94;4918780;29;20046;-45
2022/08/06 02:08:39;;;;;;;20.35;14.38;;;21.70;73.70;;;18.03;100.00;95955.94;4918229;29;20023;-45
2022/08/06 02:11:10;;;;;;;19.40;12.77;;;21.60;73.70;;;18.02;100.00;95959.75;4934570;29;20117;-47
2022/08/06 02:13:40;;;;;;;25.08;14.18;;;21.70;73.80;;;18.04;100.00;95961.00;4935352;29;20018;-48
2022/08/06 02:16:11;;;;;;;25.02;15.52;;;21.70;73.80;;;18.05;100.00;95961.84;4935544;29;20033;-47
2022/08/06 02:18:44;;;;;;;29.15;16.40;;;21.60;73.80;;;18.07;100.00;95965.00;4918289;29;20023;-48
2022/08/06 02:21:19;;;;;;;30.38;15.98;;;21.60;73.80;;;18.06;100.00;95968.03;4934541;29;20035;-45
2022/08/06 02:23:48;;;;;;;35.00;17.05;;;21.70;73.90;;;18.06;100.00;95959.94;4918175;29;20031;-44
2022/08/06 02:26:16;;;;;;;35.63;19.02;;;21.70;73.80;;;18.07;100.00;95962.31;4918494;29;20442;-44
2022/08/06 02:28:57;;;;;;;41.38;23.60;;;21.70;73.80;;;18.08;100.00;95960.41;4933785;29;20031;-44
2022/08/06 02:31:23;;;;;;;51.35;26.75;;;21.70;74.10;;;18.11;100.00;95955.19;4935535;29;20122;-47
2022/08/06 02:33:52;;;;;;;54.83;30.58;;;21.70;74.00;;;18.13;100.00;95955.72;4918056;29;20500;-45
2022/08/06 02:36:46;;;;;;;56.03;31.05;;;21.70;74.30;;;18.12;100.00;95956.81;4935305;29;20078;-45
2022/08/06 02:39:41;;;;;;;48.45;28.65;;;21.70;74.40;;;18.10;100.00;95956.31;4935102;29;20028;-47
2022/08/06 02:42:38;;;;;;;43.50;27.40;;;21.70;74.40;;;18.06;100.00;95955.34;4933933;29;20386;-49
2022/08/06 02:45:33;;;;;;;37.67;24.40;;;21.70;74.30;;;18.01;100.00;95960.81;4929631;29;20055;-45
2022/08/06 02:48:30;;;;;;;31.45;20.58;;;21.70;74.30;;;17.90;100.00;95964.84;4916251;29;20023;-44
2022/08/06 02:51:06;;;;;;;31.13;20.45;;;21.70;74.20;;;17.85;100.00;95962.25;4914780;29;20039;-47
2022/08/06 02:54:39;;;;;;;33.80;20.75;;;21.60;74.00;;;17.85;100.00;95954.97;4916297;29;20027;-48
2022/08/06 02:57:17;;;;;;;36.30;21.40;;;21.60;74.20;;;17.82;100.00;95952.06;4906254;29;20376;-44
2022/08/06 02:59:52;;;;;;;36.72;22.98;;;21.60;74.00;;;17.79;100.00;95958.84;4929182;29;20028;-45
2022/08/06 03:02:26;;;;;;;39.90;22.65;;;21.50;74.00;;;17.77;100.00;95956.47;4930027;29;20039;-43
2022/08/06 03:04:57;;;;;;;44.25;24.15;;;21.50;74.20;;;17.72;100.00;95961.13;4930026;29;20071;-44
2022/08/06 03:07:34;;;;;;;49.05;24.92;;;21.50;74.20;;;17.66;100.00;95957.75;4930224;29;20020;-44
2022/08/06 03:10:02;;;;;;;49.70;24.10;;;21.50;74.90;;;17.57;100.00;95956.84;4914122;29;20391;-45
2022/08/06 03:12:36;;;;;;;53.30;24.50;;;21.40;73.90;;;17.55;100.00;95964.44;4914011;29;20027;-44
2022/08/06 03:15:08;;;;;;;56.55;25.08;;;21.40;74.00;;;17.53;100.00;95958.56;4914520;29;20023;-44
2022/08/06 03:17:39;;;;;;;55.72;24.52;;;21.40;74.80;;;17.48;100.00;95961.34;4930374;29;20484;-44
2022/08/06 03:20:08;;;;;;;56.22;26.15;;;21.30;73.90;;;17.41;100.00;95963.63;4929913;29;20031;-46
2022/08/06 03:22:38;;;;;;;48.33;24.25;;;21.30;73.90;;;17.31;100.00;95961.94;4929972;29;20024;-44
2022/08/06 03:25:12;;;;;;;54.33;26.13;;;21.20;73.80;;;17.27;99.82;95961.75;4913261;29;20090;-44
2022/08/06 03:27:47;;;;;;;57.92;26.10;;;21.20;73.90;;;17.23;99.92;95971.47;4929531;29;20023;-44
2022/08/06 03:30:17;;;;;;;59.30;26.58;;;21.10;74.00;;;17.21;99.97;95965.63;4929285;29;20051;-45
2022/08/06 03:32:56;;;;;;;56.58;26.38;;;21.10;73.90;;;17.17;100.00;95958.41;4913932;29;20499;-43
2022/08/06 03:35:26;;;;;;;51.33;24.52;;;21.00;74.00;;;17.14;99.35;95961.69;4913938;29;20024;-43
2022/08/06 03:37:57;;;;;;;46.05;22.77;;;21.00;73.90;;;17.07;99.03;95960.19;4915204;29;20501;-44
2022/08/06 03:40:26;;;;;;;43.72;23.15;;;21.00;73.90;;;17.01;99.06;95964.06;4914607;29;20079;-44
2022/08/06 03:42:59;;;;;;;46.40;23.30;;;20.90;73.70;;;16.99;99.31;95966.28;4929171;29;20020;-43
2022/08/06 03:45:29;;;;;;;41.47;21.33;;;20.90;73.90;;;16.94;99.14;95963.66;4929280;29;20059;-43
2022/08/06 03:48:09;;;;;;;40.22;20.30;;;20.90;73.80;;;16.91;98.58;95969.63;4929291;29;20027;-44
2022/08/06 03:50:45;;;;;;;41.33;21.95;;;20.80;73.80;;;16.85;98.62;95960.84;4913917;29;20035;-46
2022/08/06 03:53:23;;;;;;;37.78;21.10;;;20.80;74.60;;;16.85;98.63;95966.22;4913553;29;20031;-44
2022/08/06 03:56:06;;;;;;;36.45;19.15;;;20.80;73.80;;;16.84;98.58;95967.31;4913832;29;20486;-45
2022/08/06 03:58:40;;;;;;;33.63;19.92;;;20.80;73.80;;;16.86;98.43;95970.53;4929075;29;20027;-43
2022/08/06 04:01:20;;;;;;;32.65;17.55;;;20.70;73.70;;;16.77;97.44;95963.44;4913721;29;20039;-46
2022/08/06 04:03:56;;;;;;;28.98;16.33;;;20.70;73.70;;;16.73;97.79;95959.69;4928468;29;20031;-44
2022/08/06 04:06:30;;;;;;;28.70;16.13;;;20.70;73.60;;;16.75;97.56;95970.97;4929190;29;20035;-44
2022/08/06 04:09:00;;;;;;;26.88;15.25;;;20.70;73.60;;;16.70;96.99;95974.50;4913156;29;20518;-44
2022/08/06 04:11:34;;;;;;;22.67;13.93;;;20.60;73.50;;;16.66;97.01;95971.63;4913180;29;20085;-43
2022/08/06 04:14:08;;;;;;;22.08;13.70;;;20.60;73.40;;;16.66;96.63;95985.06;4914165;29;20146;-44
2022/08/06 04:16:36;;;;;;;22.15;13.52;;;20.60;73.30;;;16.66;96.70;95984.25;4914730;29;20031;-44
2022/08/06 04:19:09;;;;;;;19.27;12.48;;;20.60;73.30;;;16.63;96.45;95982.97;4913029;29;20349;-44
2022/08/06 04:21:36;;;;;;;19.25;12.15;;;20.60;73.20;;;16.60;96.30;95994.28;4914716;29;20540;-47
2022/08/06 04:24:06;;;;;;;18.58;12.13;;;20.50;73.00;;;16.64;96.73;95999.91;4912852;29;20058;-44
2022/08/06 04:26:34;;;;;;;22.13;12.55;;;20.50;73.10;;;16.64;96.26;95999.91;4928821;29;20027;-47
2022/08/06 04:29:05;;;;;;;20.35;12.20;;;20.50;73.10;;;16.62;96.19;96005.56;4928551;29;20369;-44
2022/08/06 04:31:41;;;;;;;17.52;11.63;;;20.50;73.10;;;16.64;95.77;96003.41;4913410;29;20454;-44
2022/08/06 04:34:11;;;;;;;15.82;11.13;;;20.50;73.10;;;16.60;95.55;95999.69;4928581;29;20545;-44
2022/08/06 04:36:38;;;;;;;16.27;10.75;;;20.60;72.90;;;16.63;95.79;96001.78;4912873;29;20118;-45
2022/08/06 04:39:04;;;;;;;17.38;11.68;;;20.60;72.90;;;16.65;95.67;96004.19;4928596;29;20463;-45
2022/08/06 04:41:33;;;;;;;17.25;11.25;;;20.60;72.70;;;16.65;95.66;96009.56;4912779;29;20043;-45
2022/08/06 04:44:00;;;;;;;17.38;10.65;;;20.60;73.00;;;16.71;95.61;96015.69;4914129;29;20083;-47
2022/08/06 04:46:32;;;;;;;15.18;10.60;;;20.60;72.70;;;16.68;95.20;96010.88;4913073;29;20055;-45
2022/08/06 04:49:04;;;;;;;17.80;10.40;;;20.60;72.70;;;16.67;95.22;96015.44;4928398;29;20027;-47
2022/08/06 04:51:34;;;;;;;15.32;9.48;;;20.60;72.50;;;16.65;94.67;96018.44;4913929;29;20115;-46
2022/08/06 04:54:06;;;;;;;14.02;9.15;;;20.60;72.50;;;16.65;94.56;96020.34;4928311;29;20024;-45
2022/08/06 04:56:35;;;;;;;13.88;9.52;;;20.60;72.40;;;16.67;94.58;96028.88;4928826;29;20483;-45
2022/08/06 04:59:05;;;;;;;12.88;8.75;;;20.60;72.20;;;16.63;94.38;96025.19;4913865;29;20111;-46
2022/08/06 05:01:31;;;;;;;14.93;9.38;;;20.60;72.20;;;16.66;94.37;96030.00;4913956;29;20039;-47
2022/08/06 05:03:57;;;;;;;14.13;9.07;;;20.60;72.00;;;16.62;93.96;96031.66;4928400;29;20034;-47
2022/08/06 05:06:57;;;;;;;16.17;9.75;;;20.60;72.00;;;16.58;94.13;96036.84;4912526;29;20045;-45
2022/08/06 05:09:33;;;;;;;12.55;9.02;;;20.60;72.00;;;16.64;93.91;96045.63;4912194;29;20035;-48
2022/08/06 05:12:15;;;;;;;12.32;9.18;;;20.60;71.90;;;16.64;93.71;96042.94;4912563;29;20541;-45
2022/08/06 05:15:34;;;;;;;13.05;8.55;;;20.60;71.90;;;16.63;93.66;96049.41;4901255;29;20062;-45
2022/08/06 05:18:29;;;;;;;14.98;8.65;;;20.60;71.80;;;16.60;93.72;96056.16;4927821;29;20201;-45
2022/08/06 05:20:59;;;;;;;16.13;8.93;;;20.60;71.70;;;16.57;93.49;96058.63;4913900;29;20050;-46
2022/08/06 05:23:44;;;;;;;12.35;8.80;;;20.60;71.50;;;16.59;93.95;96062.63;4928139;29;20473;-47
2022/08/06 05:26:12;;;;;;;13.23;8.88;;;20.60;71.70;;;16.57;93.17;96061.31;4928121;29;20046;-46
2022/08/06 05:28:42;;;;;;;12.98;8.43;;;20.60;71.40;;;16.59;93.20;96054.56;4927766;29;20031;-46
2022/08/06 05:31:11;;;;;;;11.70;8.23;;;20.60;71.50;;;16.58;92.75;96068.31;4913676;29;20027;-46
2022/08/06 05:33:41;;;;;;;12.02;8.07;;;20.50;71.30;;;16.51;92.32;96062.47;4913707;29;20094;-45
2022/08/06 05:36:11;;;;;;;14.38;7.78;;;20.60;71.30;;;16.45;92.80;96060.94;4912557;29;20027;-46
2022/08/06 05:38:40;;;;;;;12.18;7.35;;;20.50;71.00;;;16.46;92.11;96067.94;4912008;29;20023;-46
2022/08/06 05:41:10;;;;;;;8.88;6.53;;;20.60;71.00;;;16.36;90.85;96064.31;4928362;29;20055;-47
2022/08/06 05:43:43;;;;;;;8.50;6.05;;;20.50;70.70;;;16.30;89.74;96062.78;4926542;29;20036;-47
2022/08/06 05:46:28;;;;;;;7.80;5.78;;;20.50;70.50;;;16.28;89.54;96072.22;4928083;29;20043;-45
2022/08/06 05:49:08;;;;;;;8.10;5.55;;;20.50;70.30;;;16.18;88.94;96063.19;4934014;29;20023;-46
2022/08/06 05:51:52;;;;;;;9.25;6.07;;;20.50;70.10;;;16.25;89.33;96068.19;4919072;29;20031;-47
2022/08/06 05:55:07;;;;;;;7.05;5.60;;;20.40;69.90;;;16.17;88.64;96079.59;4936041;29;20035;-51
2022/08/06 05:58:06;;;;;;;7.15;4.55;;;20.40;69.80;;;16.07;87.21;96066.28;4918929;29;20027;-45
2022/08/06 06:00:41;;;;;;;7.30;4.30;;;20.40;69.50;;;16.08;86.85;96076.75;4934971;29;20081;-45
2022/08/06 06:03:13;;;;;;;8.05;4.68;;;20.40;69.20;;;16.05;86.82;96074.63;4918573;29;20043;-45
2022/08/06 06:05:59;;;;;;;8.80;4.40;;;20.40;69.00;;;16.03;86.00;96086.75;4934375;29;20127;-48
2022/08/06 06:08:26;;;;;;;8.27;4.18;;;20.40;68.80;;;16.04;86.08;96081.06;4933834;29;20042;-47
2022/08/06 06:10:56;;;;;;;5.53;3.83;;;20.40;68.50;;;16.07;85.56;96079.72;4918263;29;20491;-46
2022/08/06 06:13:27;;;;;;;6.13;4.32;;;20.40;68.40;;;16.06;85.78;96086.97;4933429;29;20393;-45
2022/08/06 06:16:31;;;;;;;6.65;4.00;;;20.40;68.30;;;16.09;86.27;96091.78;4934434;29;20042;-46
2022/08/06 06:19:24;;;;;;;5.55;3.85;;;20.40;68.20;;;16.02;85.77;96091.34;4935039;29;20035;-48
2022/08/06 06:22:45;;;;;;;5.65;3.55;;;20.40;67.90;;;16.05;85.23;96089.97;4935475;29;20030;-45
2022/08/06 06:25:31;;;;;;;4.60;3.80;;;20.40;67.80;;;15.99;85.13;96083.06;4933799;29;20085;-45
2022/08/06 06:28:43;;;;;;;6.53;3.60;;;20.40;68.30;;;16.02;85.38;96101.28;4934078;29;20038;-46
2022/08/06 06:31:47;;;;;;;8.00;4.57;;;20.40;67.40;;;16.12;85.31;96101.16;4934658;29;20043;-45
2022/08/06 06:35:03;;;;;;;5.18;3.85;;;20.50;67.30;;;16.15;85.06;96105.97;4918499;29;20494;-45
2022/08/06 06:38:00;;;;;;;6.20;3.70;;;20.50;67.20;;;16.18;84.43;96105.38;4921403;29;20067;-48
2022/08/06 06:41:10;;;;;;;5.68;3.50;;;20.50;67.00;;;16.17;84.59;96093.84;4934306;29;20720;-46
2022/08/06 06:44:38;;;;;;;5.82;3.88;;;20.60;66.90;;;16.18;84.94;96108.06;4934696;29;20038;-47
2022/08/06 06:47:59;;;;;;;6.53;3.70;;;20.60;66.70;;;16.17;84.40;96104.59;4935368;29;20038;-46
2022/08/06 06:50:34;;;;;;;6.20;3.70;;;20.60;66.50;;;16.18;84.39;96105.38;4933612;29;20041;-45
2022/08/06 06:53:12;;;;;;;7.30;3.85;;;20.70;66.20;;;16.19;84.32;96106.97;4934988;29;20391;-45
2022/08/06 06:55:51;;;;;;;6.75;3.97;;;20.70;66.00;;;16.24;84.08;96111.50;4917559;29;20110;-46
2022/08/06 06:58:42;;;;;;;6.28;3.95;;;20.80;65.80;;;16.31;83.62;96111.94;4917067;29;20074;-47
2022/08/06 07:01:13;;;;;;;5.32;3.60;;;20.90;65.70;;;16.37;84.05;96116.19;4933377;29;20037;-46
2022/08/06 07:03:50;;;;;;;4.50;3.60;;;21.00;65.40;;;16.40;83.70;96121.78;4934734;29;20022;-48
2022/08/06 07:06:19;;;;;;;7.40;3.47;;;21.10;65.20;;;16.51;83.53;96118.94;4933237;29;20043;-45
2022/08/06 07:08:54;;;;;;;3.90;3.47;;;21.20;65.00;;;16.53;82.95;96120.25;4932872;29;20026;-46
2022/08/06 07:11:25;;;;;;;8.82;4.10;;;21.30;64.80;;;16.52;82.76;96117.88;4917649;29;20062;-49
2022/08/06 07:13:57;;;;;;;5.43;3.10;;;21.40;64.50;;;16.56;82.81;96117.00;4933535;28;20082;-45
2022/08/06 07:16:31;;;;;;;5.88;4.03;;;21.40;64.20;;;16.52;83.25;96124.06;4940777;28;20023;-48
2022/08/06 07:19:10;;;;;;;6.15;3.70;;;21.40;64.00;;;16.59;82.64;96121.00;4931854;29;20022;-46
2022/08/06 07:21:41;;;;;;;4.22;3.60;;;21.50;63.90;;;16.56;83.11;96125.06;4933187;29;20106;-46
2022/08/06 07:24:11;;;;;;;5.10;3.88;;;21.50;64.50;;;16.54;83.29;96123.75;4933121;29;20019;-47
2022/08/06 07:26:40;;;;;;;4.78;3.70;;;21.50;63.50;;;16.52;83.30;96128.63;4933189;29;20110;-44
2022/08/06 07:29:09;;;;;;;5.03;3.47;;;21.50;63.40;;;16.54;83.67;96137.19;4934027;29;20066;-47
2022/08/06 07:31:38;;;;;;;5.18;3.70;;;21.60;63.30;;;16.55;83.16;96136.13;4932479;29;20019;-47
2022/08/06 07:34:05;;;;;;;4.45;3.70;;;21.50;63.30;;;16.52;83.73;96132.13;4932010;29;20031;-47
2022/08/06 07:36:52;;;;;;;5.13;3.72;;;21.50;63.20;;;16.46;83.83;96148.59;4932796;29;20053;-45
2022/08/06 07:39:28;;;;;;;4.90;3.67;;;21.60;63.20;;;16.51;83.54;96135.88;4924922;29;20031;-45
2022/08/06 07:42:01;;;;;;;5.07;3.85;;;21.60;63.00;;;16.60;83.54;96144.09;4933803;29;20363;-49
2022/08/06 07:44:31;;;;;;;4.30;3.55;;;21.60;62.90;;;16.55;83.61;96146.88;4933461;29;20045;-47
2022/08/06 07:47:03;;;;;;;5.32;3.65;;;21.70;62.90;;;16.53;83.69;96154.44;4917110;29;20106;-46
2022/08/06 07:49:44;;;;;;;6.28;4.10;;;21.60;62.70;;;16.43;84.30;96147.28;4932409;29;20479;-48
2022/08/06 07:52:19;;;;;;;5.00;4.25;;;21.60;62.70;;;16.41;84.01;96152.94;4916734;29;20054;-45
2022/08/06 07:54:47;;;;;;;6.05;4.10;;;21.60;62.60;;;16.37;84.76;96151.91;4933523;29;20034;-47
2022/08/06 07:57:15;;;;;;;5.15;4.32;;;21.60;62.50;;;16.32;85.56;96156.56;4932687;29;20474;-46
2022/08/06 07:59:42;;;;;;;7.07;4.20;;;21.60;62.60;;;16.35;85.34;96155.97;4932348;29;20039;-49
2022/08/06 08:02:28;;;;;;;5.43;4.03;;;21.60;62.60;;;16.36;85.55;96160.28;4932611;29;20578;-45
2022/08/06 08:07:50;;;;;;;5.22;4.35;;;21.60;62.70;;;16.21;86.50;96163.94;4932279;29;20081;-47
2022/08/06 08:10:20;;;;;;;6.53;4.88;;;21.60;62.70;;;16.27;86.70;96160.13;4932327;29;20027;-44
2022/08/06 08:12:53;;;;;;;4.30;3.90;;;21.50;62.80;;;16.29;87.23;96160.59;4932454;29;20505;-44
2022/08/06 08:15:21;;;;;;;8.07;4.72;;;21.50;63.00;;;16.39;87.06;96168.56;4932093;29;20023;-43
2022/08/06 08:17:49;;;;;;;6.97;4.53;;;21.40;63.10;;;16.35;86.55;96169.41;4899974;29;20093;-44
2022/08/06 08:20:16;;;;;;;8.23;4.32;;;21.40;63.30;;;16.24;87.36;96168.75;4933535;29;20038;-45
2022/08/06 08:22:55;;;;;;;7.80;4.68;;;21.30;63.40;;;16.23;88.60;96177.09;4916437;29;20154;-45
2022/08/06 08:25:24;;;;;;;9.23;5.00;;;21.20;63.70;;;16.29;88.21;96176.72;4933095;29;20089;-46
2022/08/06 08:27:53;;;;;;;6.13;4.75;;;21.10;64.00;;;16.19;88.73;96183.03;4932897;29;20027;-44
2022/08/06 08:30:22;;;;;;;7.15;4.97;;;21.00;64.30;;;16.24;88.70;96182.19;4932998;29;20354;-47
2022/08/06 08:33:06;;;;;;;5.32;4.75;;;21.00;64.50;;;16.28;88.63;96177.84;4915973;29;20118;-47
2022/08/06 08:35:36;;;;;;;5.40;4.75;;;21.00;64.90;;;16.25;88.32;96188.34;4916218;29;20093;-46
2022/08/06 08:38:08;;;;;;;7.20;4.80;;;20.90;64.80;;;16.27;88.83;96195.06;4931864;29;20030;-44
2022/08/06 08:40:36;;;;;;;10.55;5.20;;;20.90;64.90;;;16.27;89.04;96187.00;4933162;29;20065;-44
2022/08/06 08:43:07;;;;;;;5.78;4.93;;;20.90;65.10;;;16.26;88.57;96188.06;4933218;29;20074;-46
2022/08/06 08:45:39;;;;;;;4.88;4.38;;;21.00;65.20;;;16.22;88.99;96188.94;4931931;29;20125;-45
2022/08/06 08:48:12;;;;;;;7.90;4.90;;;21.00;65.20;;;16.16;89.47;96190.88;4931622;29;20386;-44
2022/08/06 08:50:42;;;;;;;5.90;4.93;;;21.00;65.20;;;16.13;89.48;96189.53;4931947;29;20534;-45
2022/08/06 08:53:46;;;;;;;6.78;4.93;;;21.00;65.10;;;16.10;89.60;96187.41;4931807;29;20031;-45
2022/08/06 08:56:12;;;;;;;;;;;21.10;65.00;;;16.17;89.61;96187.13;4932328;29;20451;-45
2022/08/06 08:58:41;;;;;;;6.55;4.70;;;21.20;64.40;;;16.10;89.17;96192.00;4931582;29;19906;-47
2022/08/06 09:01:09;;;;;;;6.68;4.97;;;21.40;64.30;;;16.06;89.78;96194.47;4931511;29;20018;-48
2022/08/06 09:03:39;;;;;;;7.70;4.32;;;21.40;64.10;;;16.07;89.53;96198.75;4922495;29;22496;-43
2022/08/06 09:06:07;;;;;;;6.30;4.90;;;21.40;64.10;;;16.15;89.68;96192.75;4929047;29;20039;-43
2022/08/06 09:08:33;;;;;;;6.32;4.75;;;21.60;64.00;;;16.15;89.05;96195.44;4923078;29;20106;-44
2022/08/06 09:11:00;;;;;;;4.95;4.25;;;21.60;63.80;;;16.13;87.81;96197.59;4931441;29;20095;-44
2022/08/06 09:13:30;;;;;;;6.38;4.50;;;21.70;63.50;;;16.08;88.67;96189.63;4928173;29;20016;-45
2022/08/06 09:15:57;;;;;;;4.80;4.18;;;21.70;63.30;;;16.12;88.42;96201.38;4928782;29;20042;-46
2022/08/06 09:18:25;;;;;;;5.60;4.32;;;21.70;63.30;;;16.09;88.83;96209.22;4927844;29;20023;-44
2022/08/06 09:20:52;;;;;;;5.18;4.15;;;21.70;63.20;;;16.19;88.44;96204.53;4923118;29;20150;-44
2022/08/06 09:23:18;;;;;;;6.55;4.80;;;21.70;63.10;;;16.25;87.47;96209.88;4930984;29;20031;-45
2022/08/06 09:25:55;;;;;;;7.22;4.53;;;21.80;63.00;;;16.38;87.13;96214.56;4931762;29;20031;-45
2022/08/06 09:28:44;;;;;;;4.75;4.35;;;21.90;62.80;;;16.37;86.13;96216.44;4925795;29;20502;-47
2022/08/06 09:31:19;;;;;;;4.68;4.28;;;22.10;62.40;;;16.53;86.18;96218.97;4932992;29;20518;-45
2022/08/06 09:33:58;;;;;;;4.43;3.95;;;22.40;62.10;;;16.78;84.85;96218.69;4909896;29;20027;-45
2022/08/06 09:36:39;;;;;;;4.63;4.10;;;22.70;61.60;;;16.82;83.98;96219.69;4932236;29;20371;-45
2022/08/06 09:39:05;;;;;;;4.95;3.58;;;22.90;60.90;;;17.08;82.92;96227.47;4907781;29;20043;-45
2022/08/06 09:41:31;;;;;;;5.40;3.53;;;23.20;60.30;;;17.25;81.34;96222.34;4929136;29;20042;-45
2022/08/06 09:44:08;;;;;;;5.55;3.90;;;23.50;59.70;;;17.38;80.96;96225.41;4932269;29;20402;-45
2022/08/06 09:46:45;;;;;;;5.57;3.85;;;23.70;59.10;;;17.53;79.58;96220.59;4909354;29;20394;-46
2022/08/06 09:49:15;;;;;;;5.15;3.78;;;24.00;59.30;;;17.64;78.78;96217.72;4933980;28;20564;-45
2022/08/06 09:51:42;;;;;;;4.85;3.80;;;24.20;58.10;;;17.74;78.87;96228.38;4911141;29;20039;-45
2022/08/06 09:54:18;;;;;;;6.40;3.97;;;24.40;57.50;;;18.00;78.80;96218.78;4932322;29;20030;-45
2022/08/06 09:56:45;;;;;;;6.15;3.88;;;24.70;57.10;;;17.98;77.37;96217.47;4917524;29;20360;-46
2022/08/06 09:59:13;;;;;;;4.18;3.70;;;24.90;56.50;;;18.08;78.03;96219.97;4923208;29;20462;-46
2022/08/06 10:01:47;;;;;;;6.07;3.35;;;25.00;56.10;;;18.06;77.84;96210.59;4910374;29;20054;-47
2022/08/06 10:04:36;;;;;;;5.75;3.55;;;24.90;55.90;;;17.99;77.27;96214.50;4915015;29;20022;-45
2022/08/06 10:07:06;;;;;;;5.03;3.30;;;24.90;55.70;;;18.04;77.28;96222.47;4923695;29;20462;-46
2022/08/06 10:09:36;;;;;;;4.10;3.70;;;24.90;55.60;;;17.85;76.42;96221.72;4934205;29;20015;-46
2022/08/06 10:12:20;;;;;;;5.25;4.18;;;24.80;55.20;;;17.70;77.66;96214.66;4934450;29;20034;-48
2022/08/06 10:14:46;;;;;;;3.60;3.30;;;24.70;55.20;;;17.76;77.78;96224.25;4934298;29;20126;-45
2022/08/06 10:17:18;;;;;;;5.75;3.70;;;24.50;55.30;;;17.77;77.61;96223.22;4918417;29;20126;-46
2022/08/06 10:20:13;;;;;;;5.37;3.30;;;24.50;55.40;;;17.94;77.24;96229.94;4934023;29;20390;-45
2022/08/06 10:22:56;;;;;;;4.13;3.30;;;24.40;55.40;;;17.89;77.49;96222.72;4935183;29;20130;-45
2022/08/06 10:25:24;;;;;;;4.43;3.67;;;24.50;55.40;;;17.85;76.63;96229.81;4918240;29;20121;-47
2022/08/06 10:27:55;;;;;;;4.78;3.67;;;24.50;55.20;;;17.91;76.83;96231.31;4934869;29;20082;-45
2022/08/06 10:30:21;;;;;;;4.22;3.72;;;24.50;55.10;;;17.75;77.12;96228.06;4918282;29;20114;-46
2022/08/06 10:33:01;;;;;;;4.13;3.72;;;24.50;55.00;;;17.84;77.38;96230.91;4933861;29;20027;-45
2022/08/06 10:35:29;;;;;;;5.20;3.60;;;24.50;55.10;;;17.78;76.45;96227.50;4933984;29;20046;-45
2022/08/06 10:38:12;;;;;;;3.78;3.47;;;24.50;54.90;;;17.82;78.13;96235.00;4933695;29;20058;-45
2022/08/06 10:40:42;;;;;;;5.93;3.63;;;24.50;54.90;;;17.89;77.07;96227.31;4935416;29;20018;-45
2022/08/06 10:43:09;;;;;;;5.15;3.80;;;24.50;54.80;;;17.85;77.62;96232.50;4933651;29;20054;-45
2022/08/06 10:45:38;;;;;;;4.22;3.75;;;24.40;54.80;;;17.86;77.55;96231.41;4918437;29;20426;-45
2022/08/06 10:48:05;;;;;;;4.35;2.83;;;24.40;55.00;;;17.76;77.01;96226.94;4933796;29;20034;-45
2022/08/06 10:50:40;;;;;;;5.35;3.42;;;24.30;55.00;;;17.87;77.09;96230.31;4933909;29;20118;-46
2022/08/06 10:53:08;;;;;;;5.43;3.35;;;24.30;55.00;;;17.93;76.93;96231.84;4933937;29;20031;-45
2022/08/06 10:55:34;;;;;;;5.45;3.90;;;24.30;55.00;;;17.83;77.91;96223.94;4917980;29;20059;-45